sensor_id;sensor_type;location;lat;lon;timestamp;P1;durP1;ratioP1;P2;durP2;ratioP2
79644;SDS011;69117;47.148;18.954;2024-03-29T00:02:21;0.13;;;0.13;;
79644;SDS011;69117;47.148;18.954;2024-03-29T00:05:22;0.10;;;0.00;;
79644;SDS011;69117;47.148;18.954;2024-03-29T00:08:22;0.00;;;0.00;;
79644;SDS011;69117;47.148;18.954;2024-03-29T00:11:23;0.15;;;0.08;;
79644;SDS011;69117;47.148;18.954;2024-03-29T00:14:24;0.15;;;0.15;;
79644;SDS011;69117;47.148;18.954;2024-03-29T00:17:26;0.00;;;0.00;;
79644;SDS011;69117;47.148;18.954;2024-03-29T00:20:27;0.00;;;0.00;;
79644;SDS011;69117;47.148;18.954;2024-03-29T00:23:29;0.13;;;0.00;;
79644;SDS011;69117;47.148;18.954;2024-03-29T00:26:30;0.00;;;0.00;;
79644;SDS011;69117;47.148;18.954;2024-03-29T00:29:30;0.17;;;0.10;;
79644;SDS011;69117;47.148;18.954;2024-03-29T00:32:31;0.00;;;0.00;;
79644;SDS011;69117;47.148;18.954;2024-03-29T00:35:32;0.10;;;0.10;;
79644;SDS011;69117;47.148;18.954;2024-03-29T00:38:32;0.08;;;0.08;;
79644;SDS011;69117;47.148;18.954;2024-03-29T00:41:33;0.40;;;0.00;;
79644;SDS011;69117;47.148;18.954;2024-03-29T00:44:34;0.00;;;0.00;;
79644;SDS011;69117;47.148;18.954;2024-03-29T00:47:36;2.03;;;0.30;;
79644;SDS011;69117;47.148;18.954;2024-03-29T00:50:37;0.10;;;0.00;;
79644;SDS011;69117;47.148;18.954;2024-03-29T00:53:39;3.03;;;0.40;;
79644;SDS011;69117;47.148;18.954;2024-03-29T00:56:40;0.90;;;0.10;;
79644;SDS011;69117;47.148;18.954;2024-03-29T00:59:40;0.00;;;0.00;;
79644;SDS011;69117;47.148;18.954;2024-03-29T01:02:43;0.45;;;0.10;;
79644;SDS011;69117;47.148;18.954;2024-03-29T01:05:44;0.95;;;0.10;;
79644;SDS011;69117;47.148;18.954;2024-03-29T01:08:44;0.08;;;0.00;;
79644;SDS011;69117;47.148;18.954;2024-03-29T01:11:45;0.00;;;0.00;;
79644;SDS011;69117;47.148;18.954;2024-03-29T01:14:46;0.00;;;0.00;;
79644;SDS011;69117;47.148;18.954;2024-03-29T01:17:47;4.75;;;0.30;;
79644;SDS011;69117;47.148;18.954;2024-03-29T01:20:47;0.00;;;0.00;;
79644;SDS011;69117;47.148;18.954;2024-03-29T01:23:48;1.02;;;0.15;;
79644;SDS011;69117;47.148;18.954;2024-03-29T01:26:49;0.00;;;0.00;;
79644;SDS011;69117;47.148;18.954;2024-03-29T01:29:50;0.20;;;0.00;;
79644;SDS011;69117;47.148;18.954;2024-03-29T01:32:50;0.00;;;0.00;;
79644;SDS011;69117;47.148;18.954;2024-03-29T01:35:51;0.00;;;0.00;;
79644;SDS011;69117;47.148;18.954;2024-03-29T01:41:56;0.00;;;0.00;;
79644;SDS011;69117;47.148;18.954;2024-03-29T01:44:57;0.00;;;0.00;;
79644;SDS011;69117;47.148;18.954;2024-03-29T01:47:59;0.22;;;0.00;;
79644;SDS011;69117;47.148;18.954;2024-03-29T01:51:00;0.03;;;0.00;;
79644;SDS011;69117;47.148;18.954;2024-03-29T01:54:01;0.17;;;0.10;;
79644;SDS011;69117;47.148;18.954;2024-03-29T01:57:02;1.27;;;0.00;;
79644;SDS011;69117;47.148;18.954;2024-03-29T02:03:06;0.30;;;0.00;;
79644;SDS011;69117;47.148;18.954;2024-03-29T02:06:13;0.03;;;0.03;;
79644;SDS011;69117;47.148;18.954;2024-03-29T02:09:14;0.20;;;0.00;;
79644;SDS011;69117;47.148;18.954;2024-03-29T02:12:14;1.45;;;0.00;;
79644;SDS011;69117;47.148;18.954;2024-03-29T02:15:15;0.00;;;0.00;;
79644;SDS011;69117;47.148;18.954;2024-03-29T02:18:16;0.13;;;0.13;;
79644;SDS011;69117;47.148;18.954;2024-03-29T02:21:17;0.15;;;0.03;;
79644;SDS011;69117;47.148;18.954;2024-03-29T02:24:18;0.73;;;0.00;;
79644;SDS011;69117;47.148;18.954;2024-03-29T02:27:19;0.73;;;0.22;;
79644;SDS011;69117;47.148;18.954;2024-03-29T02:30:21;0.80;;;0.05;;
79644;SDS011;69117;47.148;18.954;2024-03-29T02:33:22;0.60;;;0.20;;
79644;SDS011;69117;47.148;18.954;2024-03-29T02:36:23;0.30;;;0.30;;
79644;SDS011;69117;47.148;18.954;2024-03-29T02:39:23;0.00;;;0.00;;
79644;SDS011;69117;47.148;18.954;2024-03-29T02:42:24;0.10;;;0.08;;
79644;SDS011;69117;47.148;18.954;2024-03-29T02:45:25;0.00;;;0.00;;
79644;SDS011;69117;47.148;18.954;2024-03-29T02:48:26;0.43;;;0.20;;
79644;SDS011;69117;47.148;18.954;2024-03-29T02:51:26;0.30;;;0.15;;
79644;SDS011;69117;47.148;18.954;2024-03-29T02:54:27;0.17;;;0.00;;
79644;SDS011;69117;47.148;18.954;2024-03-29T02:57:28;0.50;;;0.03;;
79644;SDS011;69117;47.148;18.954;2024-03-29T03:00:28;0.30;;;0.00;;
79644;SDS011;69117;47.148;18.954;2024-03-29T03:03:29;0.28;;;0.10;;
79644;SDS011;69117;47.148;18.954;2024-03-29T03:06:30;0.47;;;0.47;;
79644;SDS011;69117;47.148;18.954;2024-03-29T03:09:30;0.00;;;0.00;;
79644;SDS011;69117;47.148;18.954;2024-03-29T03:12:49;0.10;;;0.00;;
79644;SDS011;69117;47.148;18.954;2024-03-29T03:15:50;0.10;;;0.00;;
79644;SDS011;69117;47.148;18.954;2024-03-29T03:18:51;0.00;;;0.00;;
79644;SDS011;69117;47.148;18.954;2024-03-29T03:21:51;0.22;;;0.00;;
79644;SDS011;69117;47.148;18.954;2024-03-29T03:24:52;0.43;;;0.43;;
79644;SDS011;69117;47.148;18.954;2024-03-29T03:27:53;0.00;;;0.00;;
79644;SDS011;69117;47.148;18.954;2024-03-29T03:30:54;0.08;;;0.00;;
79644;SDS011;69117;47.148;18.954;2024-03-29T03:33:54;0.08;;;0.00;;
79644;SDS011;69117;47.148;18.954;2024-03-29T03:36:55;0.35;;;0.35;;
79644;SDS011;69117;47.148;18.954;2024-03-29T03:39:56;0.20;;;0.17;;
79644;SDS011;69117;47.148;18.954;2024-03-29T03:42:57;0.00;;;0.00;;
79644;SDS011;69117;47.148;18.954;2024-03-29T03:46:01;0.20;;;0.05;;
79644;SDS011;69117;47.148;18.954;2024-03-29T03:49:02;0.00;;;0.00;;
79644;SDS011;69117;47.148;18.954;2024-03-29T03:52:03;0.30;;;0.08;;
79644;SDS011;69117;47.148;18.954;2024-03-29T03:55:04;0.00;;;0.00;;
79644;SDS011;69117;47.148;18.954;2024-03-29T03:58:05;0.00;;;0.00;;
79644;SDS011;69117;47.148;18.954;2024-03-29T04:01:06;0.00;;;0.00;;
79644;SDS011;69117;47.148;18.954;2024-03-29T04:04:07;0.20;;;0.00;;
79644;SDS011;69117;47.148;18.954;2024-03-29T04:07:07;0.15;;;0.00;;
79644;SDS011;69117;47.148;18.954;2024-03-29T04:10:08;0.00;;;0.00;;
79644;SDS011;69117;47.148;18.954;2024-03-29T04:13:09;0.20;;;0.00;;
79644;SDS011;69117;47.148;18.954;2024-03-29T04:16:10;0.20;;;0.20;;
79644;SDS011;69117;47.148;18.954;2024-03-29T04:19:10;0.20;;;0.20;;
79644;SDS011;69117;47.148;18.954;2024-03-29T04:22:11;0.00;;;0.00;;
79644;SDS011;69117;47.148;18.954;2024-03-29T04:25:12;0.38;;;0.05;;
79644;SDS011;69117;47.148;18.954;2024-03-29T04:28:12;0.93;;;0.03;;
79644;SDS011;69117;47.148;18.954;2024-03-29T04:31:13;0.00;;;0.00;;
79644;SDS011;69117;47.148;18.954;2024-03-29T04:34:14;0.00;;;0.00;;
79644;SDS011;69117;47.148;18.954;2024-03-29T04:37:15;0.52;;;0.00;;
79644;SDS011;69117;47.148;18.954;2024-03-29T04:40:16;0.10;;;0.00;;
79644;SDS011;69117;47.148;18.954;2024-03-29T04:43:16;0.08;;;0.08;;
79644;SDS011;69117;47.148;18.954;2024-03-29T04:46:17;0.45;;;0.22;;
79644;SDS011;69117;47.148;18.954;2024-03-29T04:49:18;0.03;;;0.03;;
79644;SDS011;69117;47.148;18.954;2024-03-29T04:52:22;0.35;;;0.17;;
79644;SDS011;69117;47.148;18.954;2024-03-29T04:55:24;0.57;;;0.13;;
79644;SDS011;69117;47.148;18.954;2024-03-29T04:58:25;0.10;;;0.00;;
79644;SDS011;69117;47.148;18.954;2024-03-29T05:01:26;0.10;;;0.03;;
79644;SDS011;69117;47.148;18.954;2024-03-29T05:04:27;0.30;;;0.25;;
79644;SDS011;69117;47.148;18.954;2024-03-29T05:07:28;0.00;;;0.00;;
79644;SDS011;69117;47.148;18.954;2024-03-29T05:10:29;0.15;;;0.15;;
79644;SDS011;69117;47.148;18.954;2024-03-29T05:13:29;0.10;;;0.00;;
79644;SDS011;69117;47.148;18.954;2024-03-29T05:16:32;0.00;;;0.00;;
79644;SDS011;69117;47.148;18.954;2024-03-29T05:19:32;0.08;;;0.00;;
79644;SDS011;69117;47.148;18.954;2024-03-29T05:22:33;1.08;;;0.20;;
79644;SDS011;69117;47.148;18.954;2024-03-29T05:25:34;0.60;;;0.08;;
79644;SDS011;69117;47.148;18.954;2024-03-29T05:28:35;0.00;;;0.00;;
79644;SDS011;69117;47.148;18.954;2024-03-29T05:31:35;0.38;;;0.10;;
79644;SDS011;69117;47.148;18.954;2024-03-29T05:34:36;0.00;;;0.00;;
79644;SDS011;69117;47.148;18.954;2024-03-29T05:37:37;0.77;;;0.10;;
79644;SDS011;69117;47.148;18.954;2024-03-29T05:40:37;0.10;;;0.00;;
79644;SDS011;69117;47.148;18.954;2024-03-29T05:43:39;0.00;;;0.00;;
79644;SDS011;69117;47.148;18.954;2024-03-29T05:46:42;0.80;;;0.00;;
79644;SDS011;69117;47.148;18.954;2024-03-29T05:49:43;0.00;;;0.00;;
79644;SDS011;69117;47.148;18.954;2024-03-29T05:52:44;0.50;;;0.00;;
79644;SDS011;69117;47.148;18.954;2024-03-29T05:55:44;0.17;;;0.03;;
79644;SDS011;69117;47.148;18.954;2024-03-29T05:58:45;0.60;;;0.10;;
79644;SDS011;69117;47.148;18.954;2024-03-29T06:01:46;1.20;;;0.10;;
79644;SDS011;69117;47.148;18.954;2024-03-29T06:04:47;0.45;;;0.10;;
79644;SDS011;69117;47.148;18.954;2024-03-29T06:07:48;0.20;;;0.20;;
79644;SDS011;69117;47.148;18.954;2024-03-29T06:10:48;0.15;;;0.00;;
79644;SDS011;69117;47.148;18.954;2024-03-29T06:13:49;0.00;;;0.00;;
79644;SDS011;69117;47.148;18.954;2024-03-29T06:16:52;0.28;;;0.00;;
79644;SDS011;69117;47.148;18.954;2024-03-29T06:20:19;0.00;;;0.00;;
79644;SDS011;69117;47.148;18.954;2024-03-29T06:23:20;0.15;;;0.00;;
79644;SDS011;69117;47.148;18.954;2024-03-29T06:26:21;0.05;;;0.05;;
79644;SDS011;69117;47.148;18.954;2024-03-29T06:29:21;0.00;;;0.00;;
79644;SDS011;69117;47.148;18.954;2024-03-29T06:32:22;0.28;;;0.10;;
79644;SDS011;69117;47.148;18.954;2024-03-29T06:35:23;0.35;;;0.10;;
79644;SDS011;69117;47.148;18.954;2024-03-29T06:38:23;0.57;;;0.00;;
79644;SDS011;69117;47.148;18.954;2024-03-29T06:41:24;0.08;;;0.05;;
79644;SDS011;69117;47.148;18.954;2024-03-29T06:44:25;0.63;;;0.20;;
79644;SDS011;69117;47.148;18.954;2024-03-29T06:47:27;0.32;;;0.10;;
79644;SDS011;69117;47.148;18.954;2024-03-29T06:50:28;0.40;;;0.10;;
79644;SDS011;69117;47.148;18.954;2024-03-29T06:53:29;1.75;;;0.45;;
79644;SDS011;69117;47.148;18.954;2024-03-29T06:56:30;0.10;;;0.00;;
79644;SDS011;69117;47.148;18.954;2024-03-29T06:59:30;0.20;;;0.00;;
79644;SDS011;69117;47.148;18.954;2024-03-29T07:02:31;0.00;;;0.00;;
79644;SDS011;69117;47.148;18.954;2024-03-29T07:05:32;0.40;;;0.15;;
79644;SDS011;69117;47.148;18.954;2024-03-29T07:08:32;0.55;;;0.10;;
79644;SDS011;69117;47.148;18.954;2024-03-29T07:11:33;0.45;;;0.20;;
79644;SDS011;69117;47.148;18.954;2024-03-29T07:14:34;0.17;;;0.08;;
79644;SDS011;69117;47.148;18.954;2024-03-29T07:17:35;0.30;;;0.28;;
79644;SDS011;69117;47.148;18.954;2024-03-29T07:20:36;0.30;;;0.20;;
79644;SDS011;69117;47.148;18.954;2024-03-29T07:23:37;0.10;;;0.10;;
79644;SDS011;69117;47.148;18.954;2024-03-29T07:26:37;2.33;;;0.13;;
79644;SDS011;69117;47.148;18.954;2024-03-29T07:29:38;0.40;;;0.40;;
79644;SDS011;69117;47.148;18.954;2024-03-29T07:32:40;0.30;;;0.20;;
79644;SDS011;69117;47.148;18.954;2024-03-29T07:35:41;0.77;;;0.77;;
79644;SDS011;69117;47.148;18.954;2024-03-29T07:38:42;0.20;;;0.10;;
79644;SDS011;69117;47.148;18.954;2024-03-29T07:41:45;0.47;;;0.22;;
79644;SDS011;69117;47.148;18.954;2024-03-29T07:44:45;0.40;;;0.35;;
79644;SDS011;69117;47.148;18.954;2024-03-29T07:47:46;0.73;;;0.28;;
79644;SDS011;69117;47.148;18.954;2024-03-29T07:50:52;0.50;;;0.38;;
79644;SDS011;69117;47.148;18.954;2024-03-29T07:53:53;0.38;;;0.22;;
79644;SDS011;69117;47.148;18.954;2024-03-29T07:59:54;0.52;;;0.50;;
79644;SDS011;69117;47.148;18.954;2024-03-29T08:02:55;0.63;;;0.20;;
79644;SDS011;69117;47.148;18.954;2024-03-29T08:05:56;0.38;;;0.10;;
79644;SDS011;69117;47.148;18.954;2024-03-29T08:09:00;0.03;;;0.00;;
79644;SDS011;69117;47.148;18.954;2024-03-29T08:12:01;0.60;;;0.28;;
79644;SDS011;69117;47.148;18.954;2024-03-29T08:15:02;0.15;;;0.08;;
79644;SDS011;69117;47.148;18.954;2024-03-29T08:18:04;0.40;;;0.40;;
79644;SDS011;69117;47.148;18.954;2024-03-29T08:24:11;0.30;;;0.15;;
79644;SDS011;69117;47.148;18.954;2024-03-29T08:27:12;0.45;;;0.20;;
79644;SDS011;69117;47.148;18.954;2024-03-29T08:30:13;0.73;;;0.25;;
79644;SDS011;69117;47.148;18.954;2024-03-29T08:33:13;0.75;;;0.30;;
79644;SDS011;69117;47.148;18.954;2024-03-29T08:36:15;0.43;;;0.15;;
79644;SDS011;69117;47.148;18.954;2024-03-29T08:39:15;2.47;;;0.38;;
79644;SDS011;69117;47.148;18.954;2024-03-29T08:42:16;0.32;;;0.15;;
79644;SDS011;69117;47.148;18.954;2024-03-29T08:45:17;0.65;;;0.22;;
79644;SDS011;69117;47.148;18.954;2024-03-29T08:48:18;0.30;;;0.13;;
79644;SDS011;69117;47.148;18.954;2024-03-29T08:51:19;2.72;;;1.13;;
79644;SDS011;69117;47.148;18.954;2024-03-29T08:57:20;1.75;;;0.30;;
79644;SDS011;69117;47.148;18.954;2024-03-29T09:00:21;2.53;;;0.52;;
79644;SDS011;69117;47.148;18.954;2024-03-29T09:06:23;0.30;;;0.20;;
79644;SDS011;69117;47.148;18.954;2024-03-29T09:12:24;2.25;;;0.25;;
79644;SDS011;69117;47.148;18.954;2024-03-29T09:18:26;0.70;;;0.22;;
79644;SDS011;69117;47.148;18.954;2024-03-29T09:21:27;0.28;;;0.15;;
79644;SDS011;69117;47.148;18.954;2024-03-29T09:27:29;0.03;;;0.03;;
79644;SDS011;69117;47.148;18.954;2024-03-29T09:30:30;0.15;;;0.15;;
79644;SDS011;69117;47.148;18.954;2024-03-29T09:36:31;0.77;;;0.43;;
79644;SDS011;69117;47.148;18.954;2024-03-29T09:42:32;0.55;;;0.08;;
79644;SDS011;69117;47.148;18.954;2024-03-29T09:48:37;0.15;;;0.13;;
79644;SDS011;69117;47.148;18.954;2024-03-29T09:54:40;0.00;;;0.00;;
79644;SDS011;69117;47.148;18.954;2024-03-29T09:57:40;0.38;;;0.20;;
79644;SDS011;69117;47.148;18.954;2024-03-29T10:03:42;0.15;;;0.10;;
79644;SDS011;69117;47.148;18.954;2024-03-29T10:06:48;3.08;;;0.43;;
79644;SDS011;69117;47.148;18.954;2024-03-29T10:09:51;1.02;;;0.05;;
79644;SDS011;69117;47.148;18.954;2024-03-29T10:12:52;0.30;;;0.22;;
79644;SDS011;69117;47.148;18.954;2024-03-29T10:18:58;0.52;;;0.32;;
79644;SDS011;69117;47.148;18.954;2024-03-29T10:22:08;1.17;;;0.85;;
79644;SDS011;69117;47.148;18.954;2024-03-29T10:25:08;0.17;;;0.13;;
79644;SDS011;69117;47.148;18.954;2024-03-29T10:28:09;0.08;;;0.03;;
79644;SDS011;69117;47.148;18.954;2024-03-29T10:31:10;0.30;;;0.10;;
79644;SDS011;69117;47.148;18.954;2024-03-29T10:34:12;0.93;;;0.30;;
79644;SDS011;69117;47.148;18.954;2024-03-29T10:37:13;0.50;;;0.17;;
79644;SDS011;69117;47.148;18.954;2024-03-29T10:40:16;0.38;;;0.28;;
79644;SDS011;69117;47.148;18.954;2024-03-29T10:43:19;0.60;;;0.32;;
79644;SDS011;69117;47.148;18.954;2024-03-29T10:46:21;1.48;;;0.22;;
79644;SDS011;69117;47.148;18.954;2024-03-29T10:49:22;1.83;;;0.43;;
79644;SDS011;69117;47.148;18.954;2024-03-29T10:52:24;0.80;;;0.52;;
79644;SDS011;69117;47.148;18.954;2024-03-29T10:55:26;2.95;;;0.45;;
79644;SDS011;69117;47.148;18.954;2024-03-29T10:58:33;1.00;;;0.43;;
79644;SDS011;69117;47.148;18.954;2024-03-29T11:01:36;2.35;;;0.28;;
79644;SDS011;69117;47.148;18.954;2024-03-29T11:04:40;0.75;;;0.22;;
79644;SDS011;69117;47.148;18.954;2024-03-29T11:07:43;1.40;;;0.32;;
79644;SDS011;69117;47.148;18.954;2024-03-29T11:10:45;0.30;;;0.13;;
79644;SDS011;69117;47.148;18.954;2024-03-29T11:13:52;0.22;;;0.22;;
79644;SDS011;69117;47.148;18.954;2024-03-29T11:16:58;1.23;;;0.40;;
79644;SDS011;69117;47.148;18.954;2024-03-29T11:19:59;0.82;;;0.32;;
79644;SDS011;69117;47.148;18.954;2024-03-29T11:23:03;1.75;;;0.20;;
79644;SDS011;69117;47.148;18.954;2024-03-29T11:26:09;0.75;;;0.38;;
79644;SDS011;69117;47.148;18.954;2024-03-29T11:29:17;2.88;;;0.40;;
79644;SDS011;69117;47.148;18.954;2024-03-29T11:32:34;1.10;;;0.10;;
79644;SDS011;69117;47.148;18.954;2024-03-29T11:35:42;2.25;;;0.55;;
79644;SDS011;69117;47.148;18.954;2024-03-29T11:38:42;0.57;;;0.20;;
79644;SDS011;69117;47.148;18.954;2024-03-29T11:41:49;1.42;;;0.70;;
79644;SDS011;69117;47.148;18.954;2024-03-29T11:44:50;2.28;;;0.55;;
79644;SDS011;69117;47.148;18.954;2024-03-29T11:47:51;0.57;;;0.52;;
79644;SDS011;69117;47.148;18.954;2024-03-29T11:50:53;1.27;;;0.20;;
79644;SDS011;69117;47.148;18.954;2024-03-29T11:53:54;2.03;;;0.38;;
79644;SDS011;69117;47.148;18.954;2024-03-29T11:56:55;3.50;;;0.50;;
79644;SDS011;69117;47.148;18.954;2024-03-29T11:59:55;3.90;;;0.75;;
79644;SDS011;69117;47.148;18.954;2024-03-29T12:02:56;0.55;;;0.35;;
79644;SDS011;69117;47.148;18.954;2024-03-29T12:05:58;2.65;;;0.55;;
79644;SDS011;69117;47.148;18.954;2024-03-29T12:09:03;0.70;;;0.40;;
79644;SDS011;69117;47.148;18.954;2024-03-29T12:12:07;0.52;;;0.10;;
79644;SDS011;69117;47.148;18.954;2024-03-29T12:15:10;1.20;;;0.90;;
79644;SDS011;69117;47.148;18.954;2024-03-29T12:18:12;4.78;;;1.20;;
79644;SDS011;69117;47.148;18.954;2024-03-29T12:21:13;0.93;;;0.52;;
79644;SDS011;69117;47.148;18.954;2024-03-29T12:24:16;2.60;;;0.68;;
79644;SDS011;69117;47.148;18.954;2024-03-29T12:27:17;4.57;;;0.40;;
79644;SDS011;69117;47.148;18.954;2024-03-29T12:30:18;1.23;;;0.40;;
79644;SDS011;69117;47.148;18.954;2024-03-29T12:33:19;0.57;;;0.50;;
79644;SDS011;69117;47.148;18.954;2024-03-29T12:36:24;3.00;;;0.47;;
79644;SDS011;69117;47.148;18.954;2024-03-29T12:39:30;2.28;;;0.38;;
79644;SDS011;69117;47.148;18.954;2024-03-29T12:42:33;0.35;;;0.35;;
79644;SDS011;69117;47.148;18.954;2024-03-29T12:45:34;0.98;;;0.47;;
79644;SDS011;69117;47.148;18.954;2024-03-29T12:48:39;2.05;;;0.38;;
79644;SDS011;69117;47.148;18.954;2024-03-29T12:51:40;0.35;;;0.25;;
79644;SDS011;69117;47.148;18.954;2024-03-29T12:54:41;1.48;;;0.25;;
79644;SDS011;69117;47.148;18.954;2024-03-29T12:57:41;0.45;;;0.40;;
79644;SDS011;69117;47.148;18.954;2024-03-29T13:00:44;1.30;;;0.38;;
79644;SDS011;69117;47.148;18.954;2024-03-29T13:03:45;4.20;;;0.50;;
79644;SDS011;69117;47.148;18.954;2024-03-29T13:06:46;1.45;;;0.52;;
79644;SDS011;69117;47.148;18.954;2024-03-29T13:09:46;1.88;;;0.25;;
79644;SDS011;69117;47.148;18.954;2024-03-29T13:12:47;2.75;;;0.65;;
79644;SDS011;69117;47.148;18.954;2024-03-29T13:15:51;2.05;;;0.95;;
79644;SDS011;69117;47.148;18.954;2024-03-29T13:18:52;3.72;;;0.63;;
79644;SDS011;69117;47.148;18.954;2024-03-29T13:21:52;1.40;;;0.43;;
79644;SDS011;69117;47.148;18.954;2024-03-29T13:24:53;3.50;;;0.22;;
79644;SDS011;69117;47.148;18.954;2024-03-29T13:30:57;3.00;;;0.60;;
79644;SDS011;69117;47.148;18.954;2024-03-29T13:33:58;3.63;;;0.52;;
79644;SDS011;69117;47.148;18.954;2024-03-29T13:37:12;2.05;;;0.70;;
79644;SDS011;69117;47.148;18.954;2024-03-29T13:40:13;1.50;;;0.73;;
79644;SDS011;69117;47.148;18.954;2024-03-29T13:43:15;0.13;;;0.13;;
79644;SDS011;69117;47.148;18.954;2024-03-29T13:46:16;3.00;;;0.68;;
79644;SDS011;69117;47.148;18.954;2024-03-29T13:49:17;2.83;;;0.30;;
79644;SDS011;69117;47.148;18.954;2024-03-29T13:52:21;3.15;;;0.30;;
79644;SDS011;69117;47.148;18.954;2024-03-29T13:55:21;2.92;;;1.05;;
79644;SDS011;69117;47.148;18.954;2024-03-29T13:58:26;2.38;;;0.22;;
79644;SDS011;69117;47.148;18.954;2024-03-29T14:01:28;2.80;;;0.63;;
79644;SDS011;69117;47.148;18.954;2024-03-29T14:04:28;0.52;;;0.15;;
79644;SDS011;69117;47.148;18.954;2024-03-29T14:07:29;0.57;;;0.30;;
79644;SDS011;69117;47.148;18.954;2024-03-29T14:10:30;2.95;;;0.77;;
79644;SDS011;69117;47.148;18.954;2024-03-29T14:13:36;0.95;;;0.30;;
79644;SDS011;69117;47.148;18.954;2024-03-29T14:16:36;2.42;;;0.47;;
79644;SDS011;69117;47.148;18.954;2024-03-29T14:19:38;1.33;;;0.45;;
79644;SDS011;69117;47.148;18.954;2024-03-29T14:22:39;1.00;;;0.60;;
79644;SDS011;69117;47.148;18.954;2024-03-29T14:25:40;1.13;;;0.43;;
79644;SDS011;69117;47.148;18.954;2024-03-29T14:28:41;1.10;;;0.32;;
79644;SDS011;69117;47.148;18.954;2024-03-29T14:31:41;0.82;;;0.45;;
79644;SDS011;69117;47.148;18.954;2024-03-29T14:34:44;0.65;;;0.47;;
79644;SDS011;69117;47.148;18.954;2024-03-29T14:37:46;0.77;;;0.43;;
79644;SDS011;69117;47.148;18.954;2024-03-29T14:40:47;4.07;;;0.88;;
79644;SDS011;69117;47.148;18.954;2024-03-29T14:43:48;5.75;;;0.90;;
79644;SDS011;69117;47.148;18.954;2024-03-29T14:46:50;2.85;;;0.88;;
79644;SDS011;69117;47.148;18.954;2024-03-29T14:49:51;1.08;;;0.52;;
79644;SDS011;69117;47.148;18.954;2024-03-29T14:52:52;4.88;;;0.60;;
79644;SDS011;69117;47.148;18.954;2024-03-29T14:55:53;0.77;;;0.35;;
79644;SDS011;69117;47.148;18.954;2024-03-29T14:58:53;1.30;;;0.73;;
79644;SDS011;69117;47.148;18.954;2024-03-29T15:01:54;2.60;;;1.05;;
79644;SDS011;69117;47.148;18.954;2024-03-29T15:04:55;1.33;;;0.45;;
79644;SDS011;69117;47.148;18.954;2024-03-29T15:07:56;4.43;;;0.85;;
79644;SDS011;69117;47.148;18.954;2024-03-29T15:10:57;3.60;;;0.47;;
79644;SDS011;69117;47.148;18.954;2024-03-29T15:13:59;1.27;;;0.40;;
79644;SDS011;69117;47.148;18.954;2024-03-29T15:16:59;1.98;;;0.40;;
79644;SDS011;69117;47.148;18.954;2024-03-29T15:23:05;1.70;;;0.32;;
79644;SDS011;69117;47.148;18.954;2024-03-29T15:26:05;2.05;;;0.68;;
79644;SDS011;69117;47.148;18.954;2024-03-29T15:32:13;1.52;;;0.47;;
79644;SDS011;69117;47.148;18.954;2024-03-29T15:38:14;0.32;;;0.22;;
79644;SDS011;69117;47.148;18.954;2024-03-29T15:41:20;1.48;;;0.52;;
79644;SDS011;69117;47.148;18.954;2024-03-29T15:44:21;1.00;;;0.63;;
79644;SDS011;69117;47.148;18.954;2024-03-29T15:50:22;3.47;;;1.27;;
79644;SDS011;69117;47.148;18.954;2024-03-29T15:53:23;3.08;;;0.70;;
79644;SDS011;69117;47.148;18.954;2024-03-29T15:56:23;3.53;;;0.43;;
79644;SDS011;69117;47.148;18.954;2024-03-29T16:02:25;3.35;;;0.65;;
79644;SDS011;69117;47.148;18.954;2024-03-29T16:05:25;2.90;;;0.85;;
79644;SDS011;69117;47.148;18.954;2024-03-29T16:11:33;1.48;;;0.85;;
79644;SDS011;69117;47.148;18.954;2024-03-29T16:14:36;2.63;;;0.50;;
79644;SDS011;69117;47.148;18.954;2024-03-29T16:20:37;1.08;;;0.75;;
79644;SDS011;69117;47.148;18.954;2024-03-29T16:23:38;2.97;;;0.65;;
79644;SDS011;69117;47.148;18.954;2024-03-29T16:29:39;2.08;;;0.52;;
79644;SDS011;69117;47.148;18.954;2024-03-29T16:35:41;2.17;;;1.10;;
79644;SDS011;69117;47.148;18.954;2024-03-29T16:38:42;4.65;;;0.88;;
79644;SDS011;69117;47.148;18.954;2024-03-29T16:44:46;0.95;;;0.55;;
79644;SDS011;69117;47.148;18.954;2024-03-29T16:47:50;3.05;;;1.10;;
79644;SDS011;69117;47.148;18.954;2024-03-29T16:50:51;5.85;;;0.90;;
79644;SDS011;69117;47.148;18.954;2024-03-29T16:56:52;2.58;;;0.32;;
79644;SDS011;69117;47.148;18.954;2024-03-29T17:02:53;4.50;;;1.40;;
79644;SDS011;69117;47.148;18.954;2024-03-29T17:08:54;4.80;;;1.27;;
79644;SDS011;69117;47.148;18.954;2024-03-29T17:14:56;3.30;;;1.00;;
79644;SDS011;69117;47.148;18.954;2024-03-29T17:17:58;1.77;;;0.82;;
79644;SDS011;69117;47.148;18.954;2024-03-29T17:20:59;3.25;;;1.10;;
79644;SDS011;69117;47.148;18.954;2024-03-29T17:27:00;3.83;;;0.73;;
79644;SDS011;69117;47.148;18.954;2024-03-29T17:33:02;2.97;;;0.57;;
79644;SDS011;69117;47.148;18.954;2024-03-29T17:36:03;4.05;;;1.23;;
79644;SDS011;69117;47.148;18.954;2024-03-29T17:39:04;3.05;;;0.57;;
79644;SDS011;69117;47.148;18.954;2024-03-29T17:42:06;2.88;;;0.82;;
79644;SDS011;69117;47.148;18.954;2024-03-29T17:48:08;1.25;;;0.40;;
79644;SDS011;69117;47.148;18.954;2024-03-29T17:54:09;1.42;;;0.43;;
79644;SDS011;69117;47.148;18.954;2024-03-29T18:00:10;1.85;;;0.82;;
79644;SDS011;69117;47.148;18.954;2024-03-29T18:03:13;1.33;;;0.57;;
79644;SDS011;69117;47.148;18.954;2024-03-29T18:06:15;4.20;;;0.93;;
79644;SDS011;69117;47.148;18.954;2024-03-29T18:09:16;2.03;;;0.22;;
79644;SDS011;69117;47.148;18.954;2024-03-29T18:15:17;2.95;;;0.77;;
79644;SDS011;69117;47.148;18.954;2024-03-29T18:21:19;2.55;;;0.45;;
79644;SDS011;69117;47.148;18.954;2024-03-29T18:24:21;2.03;;;0.65;;
79644;SDS011;69117;47.148;18.954;2024-03-29T18:30:22;0.88;;;0.32;;
79644;SDS011;69117;47.148;18.954;2024-03-29T18:33:25;1.42;;;0.32;;
79644;SDS011;69117;47.148;18.954;2024-03-29T18:39:26;1.65;;;0.60;;
79644;SDS011;69117;47.148;18.954;2024-03-29T18:45:28;1.52;;;0.65;;
79644;SDS011;69117;47.148;18.954;2024-03-29T18:48:28;4.78;;;0.63;;
79644;SDS011;69117;47.148;18.954;2024-03-29T18:54:30;0.88;;;0.13;;
79644;SDS011;69117;47.148;18.954;2024-03-29T19:00:31;6.22;;;1.23;;
79644;SDS011;69117;47.148;18.954;2024-03-29T19:06:32;8.90;;;1.05;;
79644;SDS011;69117;47.148;18.954;2024-03-29T19:12:34;2.65;;;0.75;;
79644;SDS011;69117;47.148;18.954;2024-03-29T19:18:36;2.97;;;0.50;;
79644;SDS011;69117;47.148;18.954;2024-03-29T19:21:37;2.15;;;0.32;;
79644;SDS011;69117;47.148;18.954;2024-03-29T19:24:41;1.38;;;0.73;;
79644;SDS011;69117;47.148;18.954;2024-03-29T19:27:45;1.33;;;0.50;;
79644;SDS011;69117;47.148;18.954;2024-03-29T19:30:45;5.47;;;1.38;;
79644;SDS011;69117;47.148;18.954;2024-03-29T19:36:47;2.45;;;0.55;;
79644;SDS011;69117;47.148;18.954;2024-03-29T19:39:49;3.63;;;0.63;;
79644;SDS011;69117;47.148;18.954;2024-03-29T19:42:50;1.58;;;0.77;;
79644;SDS011;69117;47.148;18.954;2024-03-29T19:49:01;3.28;;;0.73;;
79644;SDS011;69117;47.148;18.954;2024-03-29T19:52:02;2.88;;;0.88;;
79644;SDS011;69117;47.148;18.954;2024-03-29T19:55:03;3.63;;;0.40;;
79644;SDS011;69117;47.148;18.954;2024-03-29T19:58:04;3.10;;;0.75;;
79644;SDS011;69117;47.148;18.954;2024-03-29T20:01:05;0.77;;;0.40;;
79644;SDS011;69117;47.148;18.954;2024-03-29T20:07:06;3.28;;;0.85;;
79644;SDS011;69117;47.148;18.954;2024-03-29T20:10:07;2.97;;;0.40;;
79644;SDS011;69117;47.148;18.954;2024-03-29T20:16:08;4.70;;;0.85;;
79644;SDS011;69117;47.148;18.954;2024-03-29T20:22:12;1.45;;;0.40;;
79644;SDS011;69117;47.148;18.954;2024-03-29T20:25:13;5.93;;;0.75;;
79644;SDS011;69117;47.148;18.954;2024-03-29T20:28:13;3.25;;;0.47;;